Flight Track Log - Related Links

Times and Time Zones

All times are in EDT time to prevent confusion due to time zone crossing. See the FLG3776 flight status page for this flight to view local times or setup timezone preferences in your user account.

Time Position Orientation Groundspeed Altitude Reporting Facility
EDT Latitude Longitude Course Direction KTS MPH feet Rate Location/Type
Sun 08:52:54 PM 44.9000 -93.2333 117° Southeast 166 191 1,700  Level Minneapolis TRACON
Sun 08:53:53 PM 44.9444 -93.2319 North 206 237 3,100 1,983 Climbing Minneapolis Center
Sun 08:54:55 PM 44.9967 -93.1847 33° Northeast 232 267 5,700 2,341 Climbing Minneapolis Center
Sun 08:55:56 PM 45.0406 -93.0969 55° Northeast 284 327 7,900 2,390 Climbing Minneapolis Center
Sun 08:56:00 PM 44.7033 -92.6286 118° Southeast  Level Estimated
Sun 08:56:58 PM 44.9897 -92.9767 121° Southeast 306 352 10,600  Level Minneapolis Center
Sun 08:57:00 PM 44.6392 -92.4955 124° Southeast  Level FlightAware
Sun 08:58:00 PM 44.5991 -92.3350 117° Southeast  Level FlightAware
Sun 08:58:00 PM 44.9272 -92.8664 129° Southeast 364 419 10,900  Level Minneapolis Center
Sun 08:59:02 PM 44.8581 -92.7403 128° Southeast 401 461 12,400 1,415 Climbing Minneapolis Center
Sun 09:00:03 PM 44.7858 -92.6128 129° Southeast 413 475 13,800 1,073 Climbing Minneapolis Center
Sun 09:01:05 PM 44.7092 -92.4783 129° Southeast 439 505 14,600 1,645 Climbing Minneapolis Center
Sun 09:02:07 PM 44.6644 -92.3292 113° Southeast 431 496 17,200 1,941 Climbing Minneapolis Center
Sun 09:03:21 PM 44.6406 -92.1436 100° East 420 483 19,000 1,015 Climbing Minneapolis Center
Sun 09:04:23 PM 44.5769 -92.0028 122° Southeast 432 497 19,500 634 Climbing Minneapolis Center
Sun 09:05:24 PM 44.4989 -91.8236 121° Southeast 446 513 20,300 683 Climbing Minneapolis Center
Sun 09:06:26 PM 44.4336 -91.6761 122° Southeast 447 514 20,900 581 Climbing Minneapolis Center
Sun 09:07:28 PM 44.3669 -91.5258 122° Southeast 452 520 21,500 532 Climbing Minneapolis Center
Sun 09:08:30 PM 44.2986 -91.3767 123° Southeast 456 525 22,000 488 Climbing Minneapolis Center
Sun 09:09:31 PM 44.2261 -91.2167 122° Southeast 464 534 22,500 488 Climbing Minneapolis Center
Sun 09:10:33 PM 44.1575 -91.0642 122° Southeast 467 537 23,000 484 Climbing Minneapolis Center
Sun 09:11:35 PM 44.0872 -90.9114 123° Southeast 470 541 23,500 484 Climbing Minneapolis Center
Sun 09:12:37 PM 44.0169 -90.7594 123° Southeast 471 542 24,000 537 Climbing Minneapolis Center
Sun 09:13:38 PM 43.9525 -90.5592 114° Southeast 476 548 24,600 439 Climbing Minneapolis Center
Sun 09:14:40 PM 43.9053 -90.4072 113° Southeast 477 549 24,900 387 Climbing Minneapolis Center
Sun 09:15:42 PM 43.8436 -90.2103 113° Southeast 478 550 25,400 435 Climbing Minneapolis Center
Sun 09:16:44 PM 43.7889 -90.0414 114° Southeast 480 552 25,800 390 Climbing Minneapolis Center
Sun 09:17:45 PM 43.7361 -89.8731 113° Southeast 478 550 26,200 390 Climbing Minneapolis Center
Sun 09:18:47 PM 43.6819 -89.7044 114° Southeast 479 551 26,600 387 Climbing Minneapolis Center
Sun 09:19:49 PM 43.6267 -89.5364 114° Southeast 480 552 27,000 207 Climbing Minneapolis Center
Sun 09:20:43 PM 43.5711 -89.3681 114° Southeast 483 556 27,000  Level Chicago Center
Sun 09:21:45 PM 43.5153 -89.1961 114° Southeast 491 565 27,000  Level Chicago Center
Sun 09:22:46 PM 43.4586 -89.0253 115° Southeast 491 565 27,000  Level Chicago Center
Sun 09:23:48 PM 43.4017 -88.8536 114° Southeast 495 570 27,000  Level Chicago Center
Sun 09:24:50 PM 43.3447 -88.6847 115° Southeast 493 567 27,000  Level Chicago Center
Sun 09:25:52 PM 43.2792 -88.4900 115° Southeast 492 566 27,000  Level Chicago Center
Sun 09:26:54 PM 43.2225 -88.3231 115° Southeast 490 564 27,000 -242 Level Chicago Center
Sun 09:27:56 PM 43.1675 -88.1572 114° Southeast 483 556 26,500 -677 Descending Chicago Center
Sun 09:28:58 PM 43.1108 -87.9939 115° Southeast 477 549 25,600 -1,210 Descending Chicago Center
Sun 09:30:00 PM 43.0461 -87.8083 115° Southeast 466 536 24,000 -780 Descending Chicago Center
Sun 09:31:01 PM 42.9917 -87.6497 115° Southeast 462 532 24,000  Level Chicago Center
Sun 09:32:03 PM 42.9347 -87.4889 116° Southeast 469 540 24,000 -242 Level Chicago Center
Sun 09:33:05 PM 42.8806 -87.3336 115° Southeast 475 547 23,500 -968 Descending Chicago Center
Sun 09:34:07 PM 42.8253 -87.1756 115° Southeast 468 539 22,000 -1,548 Descending Chicago Center
Sun 09:35:09 PM 42.7694 -87.0211 116° Southeast 459 528 20,300 -1,854 Descending Chicago Center
Sun 09:36:10 PM 42.7039 -86.8386 116° Southeast 451 519 18,200 -1,951 Descending Chicago Center
Sun 09:37:12 PM 42.6525 -86.6950 116° Southeast 429 494 16,300 -1,790 Descending Chicago Center
Sun 09:38:14 PM 42.6025 -86.5542 116° Southeast 419 482 14,500 -1,790 Descending Chicago Center
Sun 09:39:16 PM 42.5550 -86.4275 117° Southeast 381 438 12,600 -1,790 Descending Chicago Center
Sun 09:40:18 PM 42.5144 -86.3139 116° Southeast 345 397 10,800 -1,756 Descending Chicago Center
Sun 09:41:19 PM 42.4767 -86.2094 116° Southeast 316 364 9,000 -1,854 Descending Chicago Center
Sun 09:42:21 PM 42.4339 -86.0928 116° Southeast 295 339 7,000 -968 Descending Chicago Center
Sun 09:43:23 PM 42.3986 -85.9972 117° Southeast 287 330 7,000 -244 Level Chicago Center
Sun 09:44:24 PM 42.3956 -85.8947 92° East 283 326 6,500 -829 Descending Chicago Center
Sun 09:45:26 PM 42.4006 -85.8117 85° East 242 278 5,300 -1,500 Descending Chicago Center
Sun 09:46:28 PM 42.4033 -85.7417 87° East 205 236 3,400 -1,220 Descending Chicago Center
Sun 09:47:29 PM 42.4081 -85.6706 85° East 193 222 2,800 -293 Descending Chicago Center
Sun 09:48:31 PM 42.3942 -85.6008 105° East 186 214 2,800  Level Chicago Center
Sun 09:49:33 PM 42.3503 -85.5725 154° Southeast 180 207 2,800  Level Chicago Center

Login

Don't have an account? Register now (free) for customized features, flight alerts, and more!